sensor_id;sensor_type;location;lat;lon;timestamp;pressure;altitude;pressure_sealevel;temperature;humidity
14838;BME280;7510;59.296;18.106;2022-11-30T00:02:23;102572.69;;;16.78;43.45
14838;BME280;7510;59.296;18.106;2022-11-30T00:04:49;102568.22;;;16.84;42.79
14838;BME280;7510;59.296;18.106;2022-11-30T00:07:14;102550.41;;;16.63;43.06
14838;BME280;7510;59.296;18.106;2022-11-30T00:09:40;102575.59;;;16.48;43.53
14838;BME280;7510;59.296;18.106;2022-11-30T00:12:06;102535.94;;;16.45;42.78
14838;BME280;7510;59.296;18.106;2022-11-30T00:14:31;102574.84;;;16.58;43.21
14838;BME280;7510;59.296;18.106;2022-11-30T00:16:57;102582.75;;;17.54;41.51
14838;BME280;7510;59.296;18.106;2022-11-30T00:19:22;102572.44;;;17.68;41.35
14838;BME280;7510;59.296;18.106;2022-11-30T00:21:47;102567.41;;;17.53;41.37
14838;BME280;7510;59.296;18.106;2022-11-30T00:24:13;102579.59;;;18.49;39.57
14838;BME280;7510;59.296;18.106;2022-11-30T00:26:39;102584.13;;;18.43;39.38
14838;BME280;7510;59.296;18.106;2022-11-30T00:29:04;102577.53;;;18.67;39.17
14838;BME280;7510;59.296;18.106;2022-11-30T00:31:30;102585.44;;;18.07;39.86
14838;BME280;7510;59.296;18.106;2022-11-30T00:33:55;102571.75;;;18.07;39.67
14838;BME280;7510;59.296;18.106;2022-11-30T00:36:21;102582.91;;;17.94;40.15
14838;BME280;7510;59.296;18.106;2022-11-30T00:38:47;102587.94;;;18.20;39.70
14838;BME280;7510;59.296;18.106;2022-11-30T00:41:14;102587.97;;;17.56;40.88
14838;BME280;7510;59.296;18.106;2022-11-30T00:43:40;102580.41;;;16.99;42.03
14838;BME280;7510;59.296;18.106;2022-11-30T00:46:06;102581.78;;;16.72;42.42
14838;BME280;7510;59.296;18.106;2022-11-30T00:48:33;102591.22;;;16.58;42.97
14838;BME280;7510;59.296;18.106;2022-11-30T00:50:59;102588.09;;;16.37;43.35
14838;BME280;7510;59.296;18.106;2022-11-30T00:53:24;102587.09;;;16.49;43.08
14838;BME280;7510;59.296;18.106;2022-11-30T00:55:50;102571.50;;;16.14;43.57
14838;BME280;7510;59.296;18.106;2022-11-30T00:58:15;102597.72;;;16.40;43.04
14838;BME280;7510;59.296;18.106;2022-11-30T01:00:41;102592.91;;;15.93;43.48
14838;BME280;7510;59.296;18.106;2022-11-30T01:03:07;102579.53;;;16.51;42.52
14838;BME280;7510;59.296;18.106;2022-11-30T01:05:33;102597.13;;;16.55;42.55
14838;BME280;7510;59.296;18.106;2022-11-30T01:08:03;102598.13;;;17.08;41.86
14838;BME280;7510;59.296;18.106;2022-11-30T01:10:29;102586.28;;;16.85;41.84
14838;BME280;7510;59.296;18.106;2022-11-30T01:12:55;102596.13;;;16.32;42.60
14838;BME280;7510;59.296;18.106;2022-11-30T01:15:20;102586.94;;;16.98;41.75
14838;BME280;7510;59.296;18.106;2022-11-30T01:17:46;102577.28;;;16.96;41.77
14838;BME280;7510;59.296;18.106;2022-11-30T01:20:12;102587.47;;;17.18;41.34
14838;BME280;7510;59.296;18.106;2022-11-30T01:22:38;102588.22;;;17.25;41.26
14838;BME280;7510;59.296;18.106;2022-11-30T01:25:03;102593.44;;;16.97;41.63
14838;BME280;7510;59.296;18.106;2022-11-30T01:27:29;102596.69;;;16.58;42.38
14838;BME280;7510;59.296;18.106;2022-11-30T01:29:54;102599.25;;;16.53;42.72
14838;BME280;7510;59.296;18.106;2022-11-30T01:32:20;102595.81;;;15.98;43.73
14838;BME280;7510;59.296;18.106;2022-11-30T01:34:45;102596.66;;;15.74;44.46
14838;BME280;7510;59.296;18.106;2022-11-30T01:37:10;102596.69;;;15.67;44.65
14838;BME280;7510;59.296;18.106;2022-11-30T01:39:36;102603.38;;;15.71;44.93
14838;BME280;7510;59.296;18.106;2022-11-30T01:42:01;102582.25;;;15.91;44.44
14838;BME280;7510;59.296;18.106;2022-11-30T01:47:01;102598.47;;;16.04;44.17
14838;BME280;7510;59.296;18.106;2022-11-30T01:49:29;102598.13;;;16.19;43.74
14838;BME280;7510;59.296;18.106;2022-11-30T01:52:12;102587.00;;;16.20;43.28
14838;BME280;7510;59.296;18.106;2022-11-30T01:54:51;102590.16;;;16.77;42.54
14838;BME280;7510;59.296;18.106;2022-11-30T01:57:23;102592.22;;;16.93;42.37
14838;BME280;7510;59.296;18.106;2022-11-30T01:59:52;102588.69;;;16.57;42.72
14838;BME280;7510;59.296;18.106;2022-11-30T02:02:23;102580.41;;;16.81;42.13
14838;BME280;7510;59.296;18.106;2022-11-30T02:04:51;102584.38;;;16.67;42.65
14838;BME280;7510;59.296;18.106;2022-11-30T02:07:16;102581.03;;;17.31;41.55
14838;BME280;7510;59.296;18.106;2022-11-30T02:09:43;102585.25;;;17.56;40.81
14838;BME280;7510;59.296;18.106;2022-11-30T02:12:39;102587.97;;;17.44;40.99
14838;BME280;7510;59.296;18.106;2022-11-30T02:15:19;102581.19;;;17.47;40.79
14838;BME280;7510;59.296;18.106;2022-11-30T02:18:10;102579.72;;;17.33;41.20
14838;BME280;7510;59.296;18.106;2022-11-30T02:20:49;102588.78;;;17.45;40.70
14838;BME280;7510;59.296;18.106;2022-11-30T02:31:06;102583.53;;;18.41;38.91
14838;BME280;7510;59.296;18.106;2022-11-30T02:33:33;102582.00;;;18.00;39.67
14838;BME280;7510;59.296;18.106;2022-11-30T02:36:01;102580.69;;;17.91;39.74
14838;BME280;7510;59.296;18.106;2022-11-30T02:38:27;102581.06;;;18.28;39.24
14838;BME280;7510;59.296;18.106;2022-11-30T02:40:53;102581.47;;;18.71;38.65
14838;BME280;7510;59.296;18.106;2022-11-30T02:43:20;102584.88;;;18.27;39.19
14838;BME280;7510;59.296;18.106;2022-11-30T02:45:58;102566.28;;;18.29;38.76
14838;BME280;7510;59.296;18.106;2022-11-30T02:48:48;102592.81;;;18.29;38.71
14838;BME280;7510;59.296;18.106;2022-11-30T02:51:19;102587.47;;;18.00;39.11
14838;BME280;7510;59.296;18.106;2022-11-30T02:53:46;102576.97;;;17.97;39.32
14838;BME280;7510;59.296;18.106;2022-11-30T02:56:12;102585.16;;;17.62;39.71
14838;BME280;7510;59.296;18.106;2022-11-30T02:58:38;102585.53;;;17.89;39.66
14838;BME280;7510;59.296;18.106;2022-11-30T03:01:04;102581.06;;;18.28;38.65
14838;BME280;7510;59.296;18.106;2022-11-30T03:03:29;102580.09;;;17.19;40.47
14838;BME280;7510;59.296;18.106;2022-11-30T03:05:54;102569.00;;;17.84;39.36
14838;BME280;7510;59.296;18.106;2022-11-30T03:08:20;102587.31;;;17.83;39.02
14838;BME280;7510;59.296;18.106;2022-11-30T03:10:45;102577.22;;;17.95;38.86
14838;BME280;7510;59.296;18.106;2022-11-30T03:13:11;102590.09;;;18.40;38.38
14838;BME280;7510;59.296;18.106;2022-11-30T03:15:36;102581.19;;;17.47;39.35
14838;BME280;7510;59.296;18.106;2022-11-30T03:18:03;102591.41;;;17.22;40.43
14838;BME280;7510;59.296;18.106;2022-11-30T03:20:28;102581.09;;;17.53;39.45
14838;BME280;7510;59.296;18.106;2022-11-30T03:22:58;102578.50;;;17.81;38.98
14838;BME280;7510;59.296;18.106;2022-11-30T03:25:23;102580.69;;;17.09;40.19
14838;BME280;7510;59.296;18.106;2022-11-30T03:27:49;102572.28;;;17.40;39.39
14838;BME280;7510;59.296;18.106;2022-11-30T03:30:14;102581.91;;;17.42;39.40
14838;BME280;7510;59.296;18.106;2022-11-30T03:32:40;102576.50;;;17.77;38.98
14838;BME280;7510;59.296;18.106;2022-11-30T03:35:05;102575.56;;;17.42;39.39
14838;BME280;7510;59.296;18.106;2022-11-30T03:37:31;102566.50;;;17.71;38.62
14838;BME280;7510;59.296;18.106;2022-11-30T03:39:56;102576.63;;;17.93;38.66
14838;BME280;7510;59.296;18.106;2022-11-30T03:42:22;102576.63;;;18.05;38.35
14838;BME280;7510;59.296;18.106;2022-11-30T03:44:47;102581.03;;;18.17;37.95
14838;BME280;7510;59.296;18.106;2022-11-30T03:47:12;102583.06;;;17.35;39.18
14838;BME280;7510;59.296;18.106;2022-11-30T03:49:38;102578.81;;;17.21;39.69
14838;BME280;7510;59.296;18.106;2022-11-30T03:52:03;102578.22;;;17.48;39.05
14838;BME280;7510;59.296;18.106;2022-11-30T03:54:29;102557.16;;;17.08;39.64
14838;BME280;7510;59.296;18.106;2022-11-30T03:56:54;102581.69;;;16.97;40.09
14838;BME280;7510;59.296;18.106;2022-11-30T03:59:20;102576.28;;;17.08;39.76
14838;BME280;7510;59.296;18.106;2022-11-30T04:01:45;102583.41;;;17.38;39.14
14838;BME280;7510;59.296;18.106;2022-11-30T04:04:11;102571.47;;;17.51;38.90
14838;BME280;7510;59.296;18.106;2022-11-30T04:06:36;102571.22;;;17.64;38.74
14838;BME280;7510;59.296;18.106;2022-11-30T04:09:02;102585.50;;;17.66;38.80
14838;BME280;7510;59.296;18.106;2022-11-30T04:11:28;102586.34;;;17.66;38.81
14838;BME280;7510;59.296;18.106;2022-11-30T04:13:53;102584.88;;;17.52;38.92
14838;BME280;7510;59.296;18.106;2022-11-30T04:16:19;102586.09;;;17.68;38.86
14838;BME280;7510;59.296;18.106;2022-11-30T04:18:47;102590.16;;;17.77;38.78
14838;BME280;7510;59.296;18.106;2022-11-30T04:21:13;102595.72;;;17.59;38.86
14838;BME280;7510;59.296;18.106;2022-11-30T04:23:39;102591.06;;;17.48;39.18
14838;BME280;7510;59.296;18.106;2022-11-30T04:26:07;102593.34;;;17.51;39.12
14838;BME280;7510;59.296;18.106;2022-11-30T04:28:33;102586.44;;;16.54;40.78
14838;BME280;7510;59.296;18.106;2022-11-30T04:30:59;102587.56;;;17.12;39.87
14838;BME280;7510;59.296;18.106;2022-11-30T04:33:25;102598.88;;;17.15;39.87
14838;BME280;7510;59.296;18.106;2022-11-30T04:35:54;102608.91;;;17.62;38.91
14838;BME280;7510;59.296;18.106;2022-11-30T04:38:21;102592.19;;;17.70;38.69
14838;BME280;7510;59.296;18.106;2022-11-30T04:40:46;102602.88;;;17.60;38.87
14838;BME280;7510;59.296;18.106;2022-11-30T04:43:12;102605.97;;;17.75;38.83
14838;BME280;7510;59.296;18.106;2022-11-30T04:45:38;102607.47;;;18.12;38.19
14838;BME280;7510;59.296;18.106;2022-11-30T04:48:05;102599.69;;;18.66;36.85
14838;BME280;7510;59.296;18.106;2022-11-30T04:50:30;102585.31;;;18.25;37.37
14838;BME280;7510;59.296;18.106;2022-11-30T04:52:56;102603.31;;;18.32;37.57
14838;BME280;7510;59.296;18.106;2022-11-30T04:55:22;102587.47;;;18.00;37.76
14838;BME280;7510;59.296;18.106;2022-11-30T04:57:48;102601.03;;;18.40;37.35
14838;BME280;7510;59.296;18.106;2022-11-30T05:00:15;102605.56;;;18.24;37.52
14838;BME280;7510;59.296;18.106;2022-11-30T05:02:41;102585.75;;;17.76;37.98
14838;BME280;7510;59.296;18.106;2022-11-30T05:05:07;102599.81;;;17.91;38.09
14838;BME280;7510;59.296;18.106;2022-11-30T05:07:32;102575.06;;;17.86;37.97
14838;BME280;7510;59.296;18.106;2022-11-30T05:09:58;102607.41;;;17.37;38.93
14838;BME280;7510;59.296;18.106;2022-11-30T05:12:23;102608.34;;;17.60;38.70
14838;BME280;7510;59.296;18.106;2022-11-30T05:14:49;102600.19;;;17.94;38.26
14838;BME280;7510;59.296;18.106;2022-11-30T05:17:14;102610.75;;;18.14;37.69
14838;BME280;7510;59.296;18.106;2022-11-30T05:19:40;102598.66;;;17.46;38.71
14838;BME280;7510;59.296;18.106;2022-11-30T05:22:05;102608.06;;;17.50;38.74
14838;BME280;7510;59.296;18.106;2022-11-30T05:24:31;102607.59;;;17.53;38.50
14838;BME280;7510;59.296;18.106;2022-11-30T05:26:56;102588.41;;;17.12;39.43
14838;BME280;7510;59.296;18.106;2022-11-30T05:29:22;102612.19;;;17.82;38.24
14838;BME280;7510;59.296;18.106;2022-11-30T05:31:47;102610.63;;;17.97;38.16
14838;BME280;7510;59.296;18.106;2022-11-30T05:34:13;102615.53;;;18.07;38.07
14838;BME280;7510;59.296;18.106;2022-11-30T05:36:38;102617.59;;;17.00;39.80
14838;BME280;7510;59.296;18.106;2022-11-30T05:39:04;102620.00;;;17.67;38.80
14838;BME280;7510;59.296;18.106;2022-11-30T05:41:30;102612.50;;;17.33;38.89
14838;BME280;7510;59.296;18.106;2022-11-30T05:43:56;102606.66;;;17.59;38.41
14838;BME280;7510;59.296;18.106;2022-11-30T05:46:21;102619.78;;;18.03;38.13
14838;BME280;7510;59.296;18.106;2022-11-30T05:48:47;102620.50;;;17.87;38.21
14838;BME280;7510;59.296;18.106;2022-11-30T05:51:14;102622.78;;;17.90;38.14
14838;BME280;7510;59.296;18.106;2022-11-30T05:53:41;102620.25;;;17.77;38.49
14838;BME280;7510;59.296;18.106;2022-11-30T05:56:09;102603.88;;;17.47;38.41
14838;BME280;7510;59.296;18.106;2022-11-30T05:58:35;102641.19;;;17.83;37.83
14838;BME280;7510;59.296;18.106;2022-11-30T06:01:01;102632.69;;;17.61;38.24
14838;BME280;7510;59.296;18.106;2022-11-30T06:03:27;102632.97;;;17.42;38.42
14838;BME280;7510;59.296;18.106;2022-11-30T06:05:53;102637.53;;;17.48;38.52
14838;BME280;7510;59.296;18.106;2022-11-30T06:08:19;102635.34;;;17.38;38.23
14838;BME280;7510;59.296;18.106;2022-11-30T06:10:45;102646.97;;;17.63;38.10
14838;BME280;7510;59.296;18.106;2022-11-30T06:13:11;102647.72;;;17.23;38.78
14838;BME280;7510;59.296;18.106;2022-11-30T06:15:40;102630.72;;;17.21;38.45
14838;BME280;7510;59.296;18.106;2022-11-30T06:18:08;102644.19;;;17.52;38.31
14838;BME280;7510;59.296;18.106;2022-11-30T06:20:33;102639.13;;;17.08;38.68
14838;BME280;7510;59.296;18.106;2022-11-30T06:22:59;102645.00;;;17.23;38.31
14838;BME280;7510;59.296;18.106;2022-11-30T06:25:25;102634.03;;;17.12;38.11
14838;BME280;7510;59.296;18.106;2022-11-30T06:27:51;102628.09;;;16.97;38.19
14838;BME280;7510;59.296;18.106;2022-11-30T06:30:17;102654.97;;;17.00;38.73
14838;BME280;7510;59.296;18.106;2022-11-30T06:32:47;102655.50;;;17.08;38.09
14838;BME280;7510;59.296;18.106;2022-11-30T06:35:13;102649.13;;;17.14;37.98
14838;BME280;7510;59.296;18.106;2022-11-30T06:37:38;102652.63;;;16.85;38.52
14838;BME280;7510;59.296;18.106;2022-11-30T06:40:05;102656.56;;;17.07;38.13
14838;BME280;7510;59.296;18.106;2022-11-30T06:42:31;102652.91;;;17.13;37.65
14838;BME280;7510;59.296;18.106;2022-11-30T06:44:57;102652.94;;;16.95;37.98
14838;BME280;7510;59.296;18.106;2022-11-30T06:47:23;102666.88;;;16.03;39.62
14838;BME280;7510;59.296;18.106;2022-11-30T06:49:48;102665.50;;;16.60;38.51
14838;BME280;7510;59.296;18.106;2022-11-30T06:52:14;102670.31;;;16.83;38.03
14838;BME280;7510;59.296;18.106;2022-11-30T06:54:39;102655.50;;;17.08;37.83
14838;BME280;7510;59.296;18.106;2022-11-30T06:57:05;102642.09;;;16.89;37.47
14838;BME280;7510;59.296;18.106;2022-11-30T06:59:30;102666.59;;;16.77;37.84
14838;BME280;7510;59.296;18.106;2022-11-30T07:01:56;102673.81;;;16.30;38.71
14838;BME280;7510;59.296;18.106;2022-11-30T07:04:21;102670.66;;;16.02;39.16
14838;BME280;7510;59.296;18.106;2022-11-30T07:06:47;102680.41;;;15.91;39.23
14838;BME280;7510;59.296;18.106;2022-11-30T07:09:13;102678.75;;;15.90;39.20
14838;BME280;7510;59.296;18.106;2022-11-30T07:11:38;102686.69;;;15.92;39.24
14838;BME280;7510;59.296;18.106;2022-11-30T07:14:05;102671.28;;;16.28;38.31
14838;BME280;7510;59.296;18.106;2022-11-30T07:16:31;102679.31;;;16.48;38.09
14838;BME280;7510;59.296;18.106;2022-11-30T07:18:56;102678.91;;;16.20;38.55
14838;BME280;7510;59.296;18.106;2022-11-30T07:21:22;102688.38;;;15.93;39.12
14838;BME280;7510;59.296;18.106;2022-11-30T07:23:47;102675.69;;;16.05;38.93
14838;BME280;7510;59.296;18.106;2022-11-30T07:26:31;102679.31;;;16.23;38.60
14838;BME280;7510;59.296;18.106;2022-11-30T07:28:57;102692.78;;;16.43;38.23
14838;BME280;7510;59.296;18.106;2022-11-30T07:31:25;102660.88;;;16.19;38.52
14838;BME280;7510;59.296;18.106;2022-11-30T07:33:51;102687.13;;;15.89;39.08
14838;BME280;7510;59.296;18.106;2022-11-30T07:36:18;102676.72;;;16.35;38.03
14838;BME280;7510;59.296;18.106;2022-11-30T07:38:44;102692.94;;;16.23;38.40
14838;BME280;7510;59.296;18.106;2022-11-30T07:41:11;102680.25;;;16.35;38.13
14838;BME280;7510;59.296;18.106;2022-11-30T07:43:36;102677.66;;;16.64;37.45
14838;BME280;7510;59.296;18.106;2022-11-30T07:46:02;102695.19;;;16.75;37.35
14838;BME280;7510;59.296;18.106;2022-11-30T07:48:28;102674.25;;;16.27;38.07
14838;BME280;7510;59.296;18.106;2022-11-30T07:51:00;102678.75;;;16.39;37.99
14838;BME280;7510;59.296;18.106;2022-11-30T07:53:25;102693.00;;;17.19;36.96
14838;BME280;7510;59.296;18.106;2022-11-30T07:55:51;102692.53;;;16.86;37.09
14838;BME280;7510;59.296;18.106;2022-11-30T07:58:16;102663.41;;;16.98;37.09
14838;BME280;7510;59.296;18.106;2022-11-30T08:00:48;102694.09;;;18.63;35.26
14838;BME280;7510;59.296;18.106;2022-11-30T08:03:14;102692.00;;;18.42;35.02
14838;BME280;7510;59.296;18.106;2022-11-30T08:05:39;102686.91;;;17.35;35.95
14838;BME280;7510;59.296;18.106;2022-11-30T08:08:04;102675.22;;;17.87;35.75
14838;BME280;7510;59.296;18.106;2022-11-30T08:10:30;102696.66;;;19.27;34.13
14838;BME280;7510;59.296;18.106;2022-11-30T08:12:55;102703.53;;;19.97;32.74
14838;BME280;7510;59.296;18.106;2022-11-30T08:15:21;102707.66;;;19.83;32.94
14838;BME280;7510;59.296;18.106;2022-11-30T08:17:46;102713.50;;;19.47;33.47
14838;BME280;7510;59.296;18.106;2022-11-30T08:20:14;102719.19;;;19.29;33.46
14838;BME280;7510;59.296;18.106;2022-11-30T08:22:39;102722.31;;;18.98;34.21
14838;BME280;7510;59.296;18.106;2022-11-30T08:25:05;102705.44;;;18.67;34.77
14838;BME280;7510;59.296;18.106;2022-11-30T08:27:31;102716.38;;;18.78;34.71
14838;BME280;7510;59.296;18.106;2022-11-30T08:29:56;102728.41;;;18.77;34.78
14838;BME280;7510;59.296;18.106;2022-11-30T08:32:22;102696.03;;;18.51;35.05
14838;BME280;7510;59.296;18.106;2022-11-30T08:34:47;102732.22;;;18.99;34.45
14838;BME280;7510;59.296;18.106;2022-11-30T08:37:13;102719.50;;;19.44;33.80
14838;BME280;7510;59.296;18.106;2022-11-30T08:39:38;102725.34;;;19.47;33.53
14838;BME280;7510;59.296;18.106;2022-11-30T08:42:03;102728.41;;;18.77;34.60
14838;BME280;7510;59.296;18.106;2022-11-30T08:44:29;102726.38;;;18.50;35.17
14838;BME280;7510;59.296;18.106;2022-11-30T08:46:54;102713.53;;;18.39;35.30
14838;BME280;7510;59.296;18.106;2022-11-30T08:49:21;102729.97;;;18.62;35.09
14838;BME280;7510;59.296;18.106;2022-11-30T08:51:48;102732.47;;;18.40;35.17
14838;BME280;7510;59.296;18.106;2022-11-30T08:54:13;102723.53;;;18.45;35.01
14838;BME280;7510;59.296;18.106;2022-11-30T08:56:38;102733.19;;;18.70;35.27
14838;BME280;7510;59.296;18.106;2022-11-30T08:59:04;102737.22;;;18.79;34.91
14838;BME280;7510;59.296;18.106;2022-11-30T09:01:29;102739.38;;;18.54;35.26
14838;BME280;7510;59.296;18.106;2022-11-30T09:03:56;102747.47;;;18.61;35.23
14838;BME280;7510;59.296;18.106;2022-11-30T09:06:27;102733.06;;;18.54;34.96
14838;BME280;7510;59.296;18.106;2022-11-30T09:08:55;102741.75;;;18.39;35.79
14838;BME280;7510;59.296;18.106;2022-11-30T09:11:29;102680.06;;;17.44;36.23
14838;BME280;7510;59.296;18.106;2022-11-30T09:13:57;102744.88;;;18.14;36.04
14838;BME280;7510;59.296;18.106;2022-11-30T09:16:23;102743.69;;;18.21;36.18
14838;BME280;7510;59.296;18.106;2022-11-30T09:18:49;102743.88;;;18.37;35.62
14838;BME280;7510;59.296;18.106;2022-11-30T09:21:17;102743.41;;;18.63;35.58
14838;BME280;7510;59.296;18.106;2022-11-30T09:23:43;102737.59;;;18.60;35.10
14838;BME280;7510;59.296;18.106;2022-11-30T09:26:12;102753.06;;;18.77;35.41
14838;BME280;7510;59.296;18.106;2022-11-30T09:28:39;102745.56;;;18.38;35.69
14838;BME280;7510;59.296;18.106;2022-11-30T09:31:15;102751.88;;;18.85;35.28
14838;BME280;7510;59.296;18.106;2022-11-30T09:33:42;102747.00;;;18.98;35.07
14838;BME280;7510;59.296;18.106;2022-11-30T09:36:10;102737.81;;;18.93;35.33
14838;BME280;7510;59.296;18.106;2022-11-30T09:38:36;102745.56;;;18.84;35.51
14838;BME280;7510;59.296;18.106;2022-11-30T09:46:37;102747.31;;;20.19;34.06
14838;BME280;7510;59.296;18.106;2022-11-30T09:49:15;102748.53;;;19.06;35.14
14838;BME280;7510;59.296;18.106;2022-11-30T09:51:50;102742.75;;;20.91;33.42
14838;BME280;7510;59.296;18.106;2022-11-30T09:54:20;102738.22;;;21.65;32.14
14838;BME280;7510;59.296;18.106;2022-11-30T09:56:46;102731.44;;;22.25;31.75
14838;BME280;7510;59.296;18.106;2022-11-30T10:01:46;102726.72;;;21.68;31.57
14838;BME280;7510;59.296;18.106;2022-11-30T10:04:30;102735.88;;;21.74;32.09
14838;BME280;7510;59.296;18.106;2022-11-30T10:10:28;102721.75;;;20.85;33.02
14838;BME280;7510;59.296;18.106;2022-11-30T10:26:53;102739.31;;;21.85;31.79
14838;BME280;7510;59.296;18.106;2022-11-30T10:31:55;102737.25;;;21.12;32.38
14838;BME280;7510;59.296;18.106;2022-11-30T10:34:33;102741.78;;;20.03;34.12
14838;BME280;7510;59.296;18.106;2022-11-30T10:42:25;102737.00;;;18.92;36.36
14838;BME280;7510;59.296;18.106;2022-11-30T10:45:03;102726.50;;;19.12;36.08
14838;BME280;7510;59.296;18.106;2022-11-30T10:47:32;102704.41;;;19.07;36.10
14838;BME280;7510;59.296;18.106;2022-11-30T10:50:05;102719.00;;;18.62;36.60
14838;BME280;7510;59.296;18.106;2022-11-30T10:52:46;102723.41;;;18.74;36.16
14838;BME280;7510;59.296;18.106;2022-11-30T10:55:22;102723.41;;;18.74;36.54
14838;BME280;7510;59.296;18.106;2022-11-30T10:57:59;102724.59;;;18.90;36.05
14838;BME280;7510;59.296;18.106;2022-11-30T11:00:26;102721.25;;;18.99;36.23
14838;BME280;7510;59.296;18.106;2022-11-30T11:02:51;102720.78;;;19.02;35.83
14838;BME280;7510;59.296;18.106;2022-11-30T11:13:04;102715.44;;;17.86;38.00
14838;BME280;7510;59.296;18.106;2022-11-30T11:15:31;102723.84;;;17.85;38.33
14838;BME280;7510;59.296;18.106;2022-11-30T11:20:40;102719.25;;;18.26;37.31
14838;BME280;7510;59.296;18.106;2022-11-30T11:23:26;102703.44;;;18.10;37.24
14838;BME280;7510;59.296;18.106;2022-11-30T11:25:54;102712.47;;;18.51;36.80
14838;BME280;7510;59.296;18.106;2022-11-30T11:28:21;102725.09;;;18.00;37.62
14838;BME280;7510;59.296;18.106;2022-11-30T11:30:51;102720.03;;;17.09;39.88
14838;BME280;7510;59.296;18.106;2022-11-30T11:33:20;102719.09;;;17.33;39.53
14838;BME280;7510;59.296;18.106;2022-11-30T11:35:48;102741.22;;;17.32;39.74
14838;BME280;7510;59.296;18.106;2022-11-30T11:38:40;102731.84;;;17.03;40.50
14838;BME280;7510;59.296;18.106;2022-11-30T11:41:17;102727.69;;;17.37;39.92
14838;BME280;7510;59.296;18.106;2022-11-30T11:46:53;102729.47;;;17.90;39.05
14838;BME280;7510;59.296;18.106;2022-11-30T11:49:24;102746.53;;;17.74;39.37
14838;BME280;7510;59.296;18.106;2022-11-30T11:52:18;102739.03;;;16.80;41.30
14838;BME280;7510;59.296;18.106;2022-11-30T11:55:15;102717.50;;;17.73;39.20
14838;BME280;7510;59.296;18.106;2022-11-30T11:57:55;102733.09;;;18.02;39.07
14838;BME280;7510;59.296;18.106;2022-11-30T12:00:23;102669.22;;;17.67;38.88
14838;BME280;7510;59.296;18.106;2022-11-30T12:03:13;102731.31;;;18.19;38.42
14838;BME280;7510;59.296;18.106;2022-11-30T12:06:21;102724.47;;;17.87;38.59
14838;BME280;7510;59.296;18.106;2022-11-30T12:08:57;102736.38;;;18.04;38.09
14838;BME280;7510;59.296;18.106;2022-11-30T12:11:28;102729.75;;;18.00;38.26
14838;BME280;7510;59.296;18.106;2022-11-30T12:13:55;102740.06;;;17.86;38.30
14838;BME280;7510;59.296;18.106;2022-11-30T12:16:34;102734.25;;;18.06;38.03
14838;BME280;7510;59.296;18.106;2022-11-30T12:19:19;102735.28;;;17.82;38.53
14838;BME280;7510;59.296;18.106;2022-11-30T12:30:16;102764.59;;;17.45;38.82
14838;BME280;7510;59.296;18.106;2022-11-30T12:33:06;102754.19;;;17.36;39.02
14838;BME280;7510;59.296;18.106;2022-11-30T12:39:11;102758.09;;;17.22;39.52
14838;BME280;7510;59.296;18.106;2022-11-30T12:42:09;102759.59;;;17.42;39.16
14838;BME280;7510;59.296;18.106;2022-11-30T12:55:57;102762.22;;;17.31;38.28
14838;BME280;7510;59.296;18.106;2022-11-30T13:06:16;102778.63;;;16.47;39.93
14838;BME280;7510;59.296;18.106;2022-11-30T13:09:02;102764.66;;;16.61;39.46
14838;BME280;7510;59.296;18.106;2022-11-30T13:11:35;102777.63;;;16.65;39.40
14838;BME280;7510;59.296;18.106;2022-11-30T13:14:05;102766.13;;;16.33;39.48
14838;BME280;7510;59.296;18.106;2022-11-30T13:16:34;102768.78;;;16.15;39.93
14838;BME280;7510;59.296;18.106;2022-11-30T13:19:37;102785.81;;;16.41;39.80
14838;BME280;7510;59.296;18.106;2022-11-30T13:21:57;102789.31;;;16.72;39.20
14838;BME280;7510;59.296;18.106;2022-11-30T13:24:44;102789.25;;;16.79;39.16
14838;BME280;7510;59.296;18.106;2022-11-30T13:27:22;102780.03;;;16.31;39.44
14838;BME280;7510;59.296;18.106;2022-11-30T13:32:28;102784.19;;;15.96;40.07
14838;BME280;7510;59.296;18.106;2022-11-30T13:38:24;102783.56;;;15.94;39.93
14838;BME280;7510;59.296;18.106;2022-11-30T13:40:58;102789.25;;;15.93;39.72
14838;BME280;7510;59.296;18.106;2022-11-30T13:43:27;102796.00;;;16.21;39.59
14838;BME280;7510;59.296;18.106;2022-11-30T13:46:06;102790.59;;;16.15;39.34
14838;BME280;7510;59.296;18.106;2022-11-30T13:48:39;102788.13;;;16.07;39.55
14838;BME280;7510;59.296;18.106;2022-11-30T13:51:05;102793.59;;;16.07;39.25
14838;BME280;7510;59.296;18.106;2022-11-30T13:53:33;102798.22;;;16.00;39.34
14838;BME280;7510;59.296;18.106;2022-11-30T13:56:03;102796.75;;;15.66;39.80
14838;BME280;7510;59.296;18.106;2022-11-30T13:58:30;102796.00;;;15.40;40.27
14838;BME280;7510;59.296;18.106;2022-11-30T14:01:22;102799.13;;;15.50;39.89
14838;BME280;7510;59.296;18.106;2022-11-30T14:04:32;102770.53;;;15.02;40.78
14838;BME280;7510;59.296;18.106;2022-11-30T14:06:58;102784.91;;;15.42;40.27
14838;BME280;7510;59.296;18.106;2022-11-30T14:14:59;102782.09;;;15.61;39.60
14838;BME280;7510;59.296;18.106;2022-11-30T14:17:27;102783.44;;;15.39;39.73
14838;BME280;7510;59.296;18.106;2022-11-30T14:19:57;102783.94;;;15.04;40.31
14838;BME280;7510;59.296;18.106;2022-11-30T14:22:26;102788.59;;;14.77;41.05
14838;BME280;7510;59.296;18.106;2022-11-30T14:24:53;102788.31;;;15.11;40.37
14838;BME280;7510;59.296;18.106;2022-11-30T14:27:24;102790.38;;;15.35;39.93
14838;BME280;7510;59.296;18.106;2022-11-30T14:29:53;102783.66;;;15.38;40.06
14838;BME280;7510;59.296;18.106;2022-11-30T14:32:51;102786.63;;;15.36;39.62
14838;BME280;7510;59.296;18.106;2022-11-30T14:35:18;102789.75;;;15.33;39.63
14838;BME280;7510;59.296;18.106;2022-11-30T14:37:54;102779.72;;;15.27;39.56
14838;BME280;7510;59.296;18.106;2022-11-30T14:40:22;102786.00;;;15.28;39.46